sensor_id;sensor_type;location;lat;lon;timestamp;P1;durP1;ratioP1;P2;durP2;ratioP2
21168;SDS011;10742;51.816;8.662;2023-02-01T00:00:15;17.77;;;3.40;;
21168;SDS011;10742;51.816;8.662;2023-02-01T00:03:19;16.17;;;2.70;;
21168;SDS011;10742;51.816;8.662;2023-02-01T00:06:21;18.17;;;3.10;;
21168;SDS011;10742;51.816;8.662;2023-02-01T00:09:23;22.20;;;3.20;;
21168;SDS011;10742;51.816;8.662;2023-02-01T00:12:26;18.10;;;3.13;;
21168;SDS011;10742;51.816;8.662;2023-02-01T00:15:28;15.97;;;2.90;;
21168;SDS011;10742;51.816;8.662;2023-02-01T00:18:30;19.07;;;3.27;;
21168;SDS011;10742;51.816;8.662;2023-02-01T00:21:33;18.77;;;3.30;;
21168;SDS011;10742;51.816;8.662;2023-02-01T00:24:35;20.57;;;3.13;;
21168;SDS011;10742;51.816;8.662;2023-02-01T00:27:38;19.13;;;3.33;;
21168;SDS011;10742;51.816;8.662;2023-02-01T00:30:40;17.20;;;3.80;;
21168;SDS011;10742;51.816;8.662;2023-02-01T00:33:46;19.07;;;3.10;;
21168;SDS011;10742;51.816;8.662;2023-02-01T00:36:50;18.00;;;3.27;;
21168;SDS011;10742;51.816;8.662;2023-02-01T00:39:53;17.40;;;3.40;;
21168;SDS011;10742;51.816;8.662;2023-02-01T00:42:57;14.60;;;2.90;;
21168;SDS011;10742;51.816;8.662;2023-02-01T00:45:59;12.27;;;2.87;;
21168;SDS011;10742;51.816;8.662;2023-02-01T00:49:02;22.07;;;3.07;;
21168;SDS011;10742;51.816;8.662;2023-02-01T00:52:05;21.70;;;3.90;;
21168;SDS011;10742;51.816;8.662;2023-02-01T00:55:07;21.70;;;3.87;;
21168;SDS011;10742;51.816;8.662;2023-02-01T00:58:10;18.10;;;3.90;;
21168;SDS011;10742;51.816;8.662;2023-02-01T01:04:25;18.13;;;3.50;;
21168;SDS011;10742;51.816;8.662;2023-02-01T01:07:27;19.77;;;3.83;;
21168;SDS011;10742;51.816;8.662;2023-02-01T01:10:30;17.27;;;3.60;;
21168;SDS011;10742;51.816;8.662;2023-02-01T01:13:32;24.77;;;4.03;;
21168;SDS011;10742;51.816;8.662;2023-02-01T01:16:34;27.60;;;4.93;;
21168;SDS011;10742;51.816;8.662;2023-02-01T01:19:37;24.10;;;3.73;;
21168;SDS011;10742;51.816;8.662;2023-02-01T01:22:39;15.87;;;3.63;;
21168;SDS011;10742;51.816;8.662;2023-02-01T01:25:42;16.90;;;4.00;;
21168;SDS011;10742;51.816;8.662;2023-02-01T01:28:44;18.57;;;4.00;;
21168;SDS011;10742;51.816;8.662;2023-02-01T01:31:46;19.10;;;4.20;;
21168;SDS011;10742;51.816;8.662;2023-02-01T01:34:49;20.10;;;4.87;;
21168;SDS011;10742;51.816;8.662;2023-02-01T01:37:51;18.90;;;4.17;;
21168;SDS011;10742;51.816;8.662;2023-02-01T01:40:53;21.63;;;4.20;;
21168;SDS011;10742;51.816;8.662;2023-02-01T01:43:57;19.90;;;4.20;;
21168;SDS011;10742;51.816;8.662;2023-02-01T01:47:04;19.83;;;4.53;;
21168;SDS011;10742;51.816;8.662;2023-02-01T01:50:07;20.57;;;5.13;;
21168;SDS011;10742;51.816;8.662;2023-02-01T01:53:15;22.83;;;4.90;;
21168;SDS011;10742;51.816;8.662;2023-02-01T01:56:21;24.77;;;5.10;;
21168;SDS011;10742;51.816;8.662;2023-02-01T01:59:24;22.63;;;5.43;;
21168;SDS011;10742;51.816;8.662;2023-02-01T02:02:27;27.43;;;5.37;;
21168;SDS011;10742;51.816;8.662;2023-02-01T02:05:29;20.30;;;5.60;;
21168;SDS011;10742;51.816;8.662;2023-02-01T02:08:32;26.60;;;5.73;;
21168;SDS011;10742;51.816;8.662;2023-02-01T02:11:34;22.33;;;5.80;;
21168;SDS011;10742;51.816;8.662;2023-02-01T02:14:37;24.83;;;5.97;;
21168;SDS011;10742;51.816;8.662;2023-02-01T02:21:12;26.77;;;6.53;;
21168;SDS011;10742;51.816;8.662;2023-02-01T02:24:34;28.83;;;5.93;;
21168;SDS011;10742;51.816;8.662;2023-02-01T02:34:52;27.53;;;5.70;;
21168;SDS011;10742;51.816;8.662;2023-02-01T02:41:19;25.67;;;6.17;;
21168;SDS011;10742;51.816;8.662;2023-02-01T02:44:45;27.67;;;5.60;;
21168;SDS011;10742;51.816;8.662;2023-02-01T02:48:20;24.03;;;5.90;;
21168;SDS011;10742;51.816;8.662;2023-02-01T02:51:48;24.30;;;5.97;;
21168;SDS011;10742;51.816;8.662;2023-02-01T02:55:14;24.07;;;5.07;;
21168;SDS011;10742;51.816;8.662;2023-02-01T02:58:17;20.50;;;4.87;;
21168;SDS011;10742;51.816;8.662;2023-02-01T03:01:40;22.10;;;4.80;;
21168;SDS011;10742;51.816;8.662;2023-02-01T03:05:02;17.67;;;3.90;;
21168;SDS011;10742;51.816;8.662;2023-02-01T03:11:14;16.37;;;3.97;;
21168;SDS011;10742;51.816;8.662;2023-02-01T03:14:17;19.67;;;4.17;;
21168;SDS011;10742;51.816;8.662;2023-02-01T03:17:26;25.97;;;4.60;;
21168;SDS011;10742;51.816;8.662;2023-02-01T03:20:34;18.63;;;4.20;;
21168;SDS011;10742;51.816;8.662;2023-02-01T03:23:41;15.23;;;3.37;;
21168;SDS011;10742;51.816;8.662;2023-02-01T03:26:53;17.70;;;3.07;;
21168;SDS011;10742;51.816;8.662;2023-02-01T03:33:13;19.60;;;4.23;;
21168;SDS011;10742;51.816;8.662;2023-02-01T03:39:48;16.33;;;2.90;;
21168;SDS011;10742;51.816;8.662;2023-02-01T03:43:01;14.77;;;3.30;;
21168;SDS011;10742;51.816;8.662;2023-02-01T03:46:08;15.60;;;2.97;;
21168;SDS011;10742;51.816;8.662;2023-02-01T03:49:17;18.33;;;2.87;;
21168;SDS011;10742;51.816;8.662;2023-02-01T03:52:36;19.30;;;3.33;;
21168;SDS011;10742;51.816;8.662;2023-02-01T03:55:43;20.20;;;3.47;;
21168;SDS011;10742;51.816;8.662;2023-02-01T03:58:45;19.13;;;3.00;;
21168;SDS011;10742;51.816;8.662;2023-02-01T04:02:06;12.77;;;2.67;;
21168;SDS011;10742;51.816;8.662;2023-02-01T04:05:09;18.93;;;3.33;;
21168;SDS011;10742;51.816;8.662;2023-02-01T04:08:15;15.17;;;3.03;;
21168;SDS011;10742;51.816;8.662;2023-02-01T04:11:17;19.97;;;3.43;;
21168;SDS011;10742;51.816;8.662;2023-02-01T04:14:20;18.07;;;3.27;;
21168;SDS011;10742;51.816;8.662;2023-02-01T04:17:22;16.70;;;3.10;;
21168;SDS011;10742;51.816;8.662;2023-02-01T04:20:24;15.03;;;3.40;;
21168;SDS011;10742;51.816;8.662;2023-02-01T04:23:27;15.97;;;2.83;;
21168;SDS011;10742;51.816;8.662;2023-02-01T04:26:30;19.20;;;3.40;;
21168;SDS011;10742;51.816;8.662;2023-02-01T04:29:32;11.93;;;2.70;;
21168;SDS011;10742;51.816;8.662;2023-02-01T04:32:35;16.00;;;2.70;;
21168;SDS011;10742;51.816;8.662;2023-02-01T04:35:38;20.17;;;2.90;;
21168;SDS011;10742;51.816;8.662;2023-02-01T04:38:41;20.53;;;2.93;;
21168;SDS011;10742;51.816;8.662;2023-02-01T04:41:43;19.27;;;2.80;;
21168;SDS011;10742;51.816;8.662;2023-02-01T04:44:45;17.70;;;2.63;;
21168;SDS011;10742;51.816;8.662;2023-02-01T04:47:47;19.33;;;3.23;;
21168;SDS011;10742;51.816;8.662;2023-02-01T04:50:50;16.20;;;3.10;;
21168;SDS011;10742;51.816;8.662;2023-02-01T04:53:52;15.67;;;3.23;;
21168;SDS011;10742;51.816;8.662;2023-02-01T04:56:57;17.93;;;3.10;;
21168;SDS011;10742;51.816;8.662;2023-02-01T04:59:59;18.50;;;3.10;;
21168;SDS011;10742;51.816;8.662;2023-02-01T05:03:03;21.10;;;3.30;;
21168;SDS011;10742;51.816;8.662;2023-02-01T05:06:05;14.50;;;3.17;;
21168;SDS011;10742;51.816;8.662;2023-02-01T05:09:07;20.90;;;2.90;;
21168;SDS011;10742;51.816;8.662;2023-02-01T05:12:10;17.60;;;2.57;;
21168;SDS011;10742;51.816;8.662;2023-02-01T05:15:31;20.50;;;3.27;;
21168;SDS011;10742;51.816;8.662;2023-02-01T05:18:33;22.43;;;3.70;;
21168;SDS011;10742;51.816;8.662;2023-02-01T05:21:36;17.30;;;2.83;;
21168;SDS011;10742;51.816;8.662;2023-02-01T05:24:38;19.80;;;3.87;;
21168;SDS011;10742;51.816;8.662;2023-02-01T05:27:40;21.67;;;3.30;;
21168;SDS011;10742;51.816;8.662;2023-02-01T05:30:43;18.17;;;2.80;;
21168;SDS011;10742;51.816;8.662;2023-02-01T05:33:46;20.80;;;3.63;;
21168;SDS011;10742;51.816;8.662;2023-02-01T05:36:48;19.60;;;3.30;;
21168;SDS011;10742;51.816;8.662;2023-02-01T05:39:51;19.47;;;3.30;;
21168;SDS011;10742;51.816;8.662;2023-02-01T05:42:53;20.00;;;3.10;;
21168;SDS011;10742;51.816;8.662;2023-02-01T05:45:55;19.53;;;3.30;;
21168;SDS011;10742;51.816;8.662;2023-02-01T05:48:58;17.27;;;3.10;;
21168;SDS011;10742;51.816;8.662;2023-02-01T05:52:00;11.20;;;2.80;;
21168;SDS011;10742;51.816;8.662;2023-02-01T05:55:03;22.97;;;3.20;;
21168;SDS011;10742;51.816;8.662;2023-02-01T05:58:05;18.10;;;3.17;;
21168;SDS011;10742;51.816;8.662;2023-02-01T06:01:07;16.57;;;2.83;;
21168;SDS011;10742;51.816;8.662;2023-02-01T06:04:10;23.43;;;3.13;;
21168;SDS011;10742;51.816;8.662;2023-02-01T06:07:12;20.73;;;3.53;;
21168;SDS011;10742;51.816;8.662;2023-02-01T06:10:15;22.43;;;3.43;;
21168;SDS011;10742;51.816;8.662;2023-02-01T06:13:18;18.00;;;3.67;;
21168;SDS011;10742;51.816;8.662;2023-02-01T06:16:22;15.87;;;2.87;;
21168;SDS011;10742;51.816;8.662;2023-02-01T06:19:24;16.43;;;3.70;;
21168;SDS011;10742;51.816;8.662;2023-02-01T06:22:27;19.33;;;3.73;;
21168;SDS011;10742;51.816;8.662;2023-02-01T06:25:29;20.70;;;3.20;;
21168;SDS011;10742;51.816;8.662;2023-02-01T06:28:32;13.10;;;2.90;;
21168;SDS011;10742;51.816;8.662;2023-02-01T06:31:34;20.07;;;2.97;;
21168;SDS011;10742;51.816;8.662;2023-02-01T06:34:37;17.90;;;3.60;;
21168;SDS011;10742;51.816;8.662;2023-02-01T06:37:41;14.40;;;3.03;;
21168;SDS011;10742;51.816;8.662;2023-02-01T06:40:44;14.60;;;3.00;;
21168;SDS011;10742;51.816;8.662;2023-02-01T06:43:46;21.97;;;3.53;;
21168;SDS011;10742;51.816;8.662;2023-02-01T06:46:48;18.57;;;4.00;;
21168;SDS011;10742;51.816;8.662;2023-02-01T06:49:51;20.67;;;4.03;;
21168;SDS011;10742;51.816;8.662;2023-02-01T06:52:53;17.30;;;3.83;;
21168;SDS011;10742;51.816;8.662;2023-02-01T06:55:57;16.03;;;3.27;;
21168;SDS011;10742;51.816;8.662;2023-02-01T06:59:03;16.57;;;3.10;;
21168;SDS011;10742;51.816;8.662;2023-02-01T07:02:09;19.83;;;2.70;;
21168;SDS011;10742;51.816;8.662;2023-02-01T07:05:15;17.23;;;3.23;;
21168;SDS011;10742;51.816;8.662;2023-02-01T07:08:17;21.03;;;3.33;;
21168;SDS011;10742;51.816;8.662;2023-02-01T07:11:20;17.93;;;3.23;;
21168;SDS011;10742;51.816;8.662;2023-02-01T07:14:23;20.37;;;3.23;;
21168;SDS011;10742;51.816;8.662;2023-02-01T07:17:26;13.93;;;3.03;;
21168;SDS011;10742;51.816;8.662;2023-02-01T07:20:28;19.97;;;3.30;;
21168;SDS011;10742;51.816;8.662;2023-02-01T07:23:30;23.23;;;3.10;;
21168;SDS011;10742;51.816;8.662;2023-02-01T07:26:33;19.63;;;2.73;;
21168;SDS011;10742;51.816;8.662;2023-02-01T07:29:35;16.97;;;2.80;;
21168;SDS011;10742;51.816;8.662;2023-02-01T07:32:37;16.30;;;3.10;;
21168;SDS011;10742;51.816;8.662;2023-02-01T07:35:40;16.03;;;3.17;;
21168;SDS011;10742;51.816;8.662;2023-02-01T07:38:43;20.50;;;2.80;;
21168;SDS011;10742;51.816;8.662;2023-02-01T07:41:46;17.80;;;3.40;;
21168;SDS011;10742;51.816;8.662;2023-02-01T07:44:49;25.60;;;4.67;;
21168;SDS011;10742;51.816;8.662;2023-02-01T07:47:51;23.13;;;3.00;;
21168;SDS011;10742;51.816;8.662;2023-02-01T07:51:05;14.23;;;2.83;;
21168;SDS011;10742;51.816;8.662;2023-02-01T07:54:10;15.17;;;3.10;;
21168;SDS011;10742;51.816;8.662;2023-02-01T07:57:12;16.03;;;3.30;;
21168;SDS011;10742;51.816;8.662;2023-02-01T08:00:15;17.20;;;3.50;;
21168;SDS011;10742;51.816;8.662;2023-02-01T08:03:36;17.67;;;2.77;;
21168;SDS011;10742;51.816;8.662;2023-02-01T08:06:39;15.43;;;2.60;;
21168;SDS011;10742;51.816;8.662;2023-02-01T08:09:43;13.67;;;2.67;;
21168;SDS011;10742;51.816;8.662;2023-02-01T08:12:45;25.13;;;3.20;;
21168;SDS011;10742;51.816;8.662;2023-02-01T08:15:57;20.90;;;3.13;;
21168;SDS011;10742;51.816;8.662;2023-02-01T08:19:01;19.00;;;2.90;;
21168;SDS011;10742;51.816;8.662;2023-02-01T08:22:04;18.20;;;2.93;;
21168;SDS011;10742;51.816;8.662;2023-02-01T08:25:08;16.40;;;3.30;;
21168;SDS011;10742;51.816;8.662;2023-02-01T08:28:11;19.60;;;3.13;;
21168;SDS011;10742;51.816;8.662;2023-02-01T08:31:15;21.73;;;3.80;;
21168;SDS011;10742;51.816;8.662;2023-02-01T08:34:18;15.13;;;2.90;;
21168;SDS011;10742;51.816;8.662;2023-02-01T08:37:20;18.23;;;3.60;;
21168;SDS011;10742;51.816;8.662;2023-02-01T08:40:24;19.10;;;3.40;;
21168;SDS011;10742;51.816;8.662;2023-02-01T08:43:26;18.27;;;3.07;;
21168;SDS011;10742;51.816;8.662;2023-02-01T08:46:28;13.73;;;3.13;;
21168;SDS011;10742;51.816;8.662;2023-02-01T08:49:31;16.70;;;3.57;;
21168;SDS011;10742;51.816;8.662;2023-02-01T08:52:33;19.87;;;3.80;;
21168;SDS011;10742;51.816;8.662;2023-02-01T08:55:38;23.63;;;3.80;;
21168;SDS011;10742;51.816;8.662;2023-02-01T08:58:41;18.93;;;3.53;;
21168;SDS011;10742;51.816;8.662;2023-02-01T09:01:44;17.73;;;3.40;;
21168;SDS011;10742;51.816;8.662;2023-02-01T09:04:46;21.17;;;3.87;;
21168;SDS011;10742;51.816;8.662;2023-02-01T09:07:49;14.73;;;3.27;;
21168;SDS011;10742;51.816;8.662;2023-02-01T09:10:51;19.17;;;3.10;;
21168;SDS011;10742;51.816;8.662;2023-02-01T09:13:53;18.77;;;3.27;;
21168;SDS011;10742;51.816;8.662;2023-02-01T09:16:55;15.67;;;3.37;;
21168;SDS011;10742;51.816;8.662;2023-02-01T09:19:58;16.37;;;3.77;;
21168;SDS011;10742;51.816;8.662;2023-02-01T09:23:00;20.00;;;4.33;;
21168;SDS011;10742;51.816;8.662;2023-02-01T09:26:03;18.13;;;3.03;;
21168;SDS011;10742;51.816;8.662;2023-02-01T09:29:06;16.67;;;3.70;;
21168;SDS011;10742;51.816;8.662;2023-02-01T09:32:14;18.17;;;3.70;;
21168;SDS011;10742;51.816;8.662;2023-02-01T09:35:16;21.90;;;3.10;;
21168;SDS011;10742;51.816;8.662;2023-02-01T09:38:18;20.33;;;3.00;;
21168;SDS011;10742;51.816;8.662;2023-02-01T09:41:42;16.30;;;3.60;;
21168;SDS011;10742;51.816;8.662;2023-02-01T09:48:17;16.43;;;3.50;;
21168;SDS011;10742;51.816;8.662;2023-02-01T09:51:29;12.33;;;2.97;;
21168;SDS011;10742;51.816;8.662;2023-02-01T09:54:40;20.10;;;3.47;;
21168;SDS011;10742;51.816;8.662;2023-02-01T10:00:58;18.37;;;3.60;;
21168;SDS011;10742;51.816;8.662;2023-02-01T10:04:06;14.67;;;2.97;;
21168;SDS011;10742;51.816;8.662;2023-02-01T10:10:31;21.87;;;3.60;;
21168;SDS011;10742;51.816;8.662;2023-02-01T10:13:54;17.77;;;3.63;;
21168;SDS011;10742;51.816;8.662;2023-02-01T10:17:24;23.83;;;3.73;;
21168;SDS011;10742;51.816;8.662;2023-02-01T10:27:33;18.33;;;3.40;;
21168;SDS011;10742;51.816;8.662;2023-02-01T10:30:39;16.77;;;3.60;;
21168;SDS011;10742;51.816;8.662;2023-02-01T10:33:47;24.07;;;3.83;;
21168;SDS011;10742;51.816;8.662;2023-02-01T10:36:54;20.83;;;3.80;;
21168;SDS011;10742;51.816;8.662;2023-02-01T10:43:26;20.90;;;3.97;;
21168;SDS011;10742;51.816;8.662;2023-02-01T10:46:29;21.03;;;3.80;;
21168;SDS011;10742;51.816;8.662;2023-02-01T10:49:33;22.27;;;3.90;;
21168;SDS011;10742;51.816;8.662;2023-02-01T10:52:52;20.00;;;4.27;;
21168;SDS011;10742;51.816;8.662;2023-02-01T10:56:04;22.33;;;3.73;;
21168;SDS011;10742;51.816;8.662;2023-02-01T10:59:14;18.53;;;3.67;;
21168;SDS011;10742;51.816;8.662;2023-02-01T11:02:24;15.60;;;3.50;;
21168;SDS011;10742;51.816;8.662;2023-02-01T11:05:43;15.17;;;3.20;;
21168;SDS011;10742;51.816;8.662;2023-02-01T11:08:48;18.43;;;3.20;;
21168;SDS011;10742;51.816;8.662;2023-02-01T11:11:58;16.43;;;3.17;;
21168;SDS011;10742;51.816;8.662;2023-02-01T11:15:03;18.23;;;4.17;;
21168;SDS011;10742;51.816;8.662;2023-02-01T11:18:26;14.97;;;3.67;;
21168;SDS011;10742;51.816;8.662;2023-02-01T11:21:30;19.20;;;4.10;;
21168;SDS011;10742;51.816;8.662;2023-02-01T11:24:35;25.77;;;4.00;;
21168;SDS011;10742;51.816;8.662;2023-02-01T11:27:40;21.80;;;3.50;;
21168;SDS011;10742;51.816;8.662;2023-02-01T11:30:54;21.23;;;3.60;;
21168;SDS011;10742;51.816;8.662;2023-02-01T11:34:07;19.70;;;3.27;;
21168;SDS011;10742;51.816;8.662;2023-02-01T11:37:27;16.63;;;4.07;;
21168;SDS011;10742;51.816;8.662;2023-02-01T11:40:38;19.20;;;3.70;;
21168;SDS011;10742;51.816;8.662;2023-02-01T11:43:51;17.57;;;3.40;;
21168;SDS011;10742;51.816;8.662;2023-02-01T11:47:16;22.40;;;3.57;;
21168;SDS011;10742;51.816;8.662;2023-02-01T11:50:30;18.10;;;3.33;;
21168;SDS011;10742;51.816;8.662;2023-02-01T11:53:59;17.40;;;3.67;;
21168;SDS011;10742;51.816;8.662;2023-02-01T12:04:38;18.97;;;3.50;;
21168;SDS011;10742;51.816;8.662;2023-02-01T12:11:20;20.57;;;3.90;;
21168;SDS011;10742;51.816;8.662;2023-02-01T12:14:59;16.70;;;3.57;;
21168;SDS011;10742;51.816;8.662;2023-02-01T12:28:33;31.33;;;9.67;;
21168;SDS011;10742;51.816;8.662;2023-02-01T12:42:29;77.00;;;37.80;;
21168;SDS011;10742;51.816;8.662;2023-02-01T12:45:36;31.30;;;12.97;;
21168;SDS011;10742;51.816;8.662;2023-02-01T12:48:51;21.83;;;7.00;;
21168;SDS011;10742;51.816;8.662;2023-02-01T12:52:02;20.13;;;5.50;;
21168;SDS011;10742;51.816;8.662;2023-02-01T12:55:32;20.10;;;4.50;;
21168;SDS011;10742;51.816;8.662;2023-02-01T12:58:44;19.27;;;4.93;;
21168;SDS011;10742;51.816;8.662;2023-02-01T13:01:54;25.87;;;4.93;;
21168;SDS011;10742;51.816;8.662;2023-02-01T13:05:14;22.60;;;5.10;;
21168;SDS011;10742;51.816;8.662;2023-02-01T13:08:24;16.53;;;4.90;;
21168;SDS011;10742;51.816;8.662;2023-02-01T13:11:33;19.27;;;6.07;;
21168;SDS011;10742;51.816;8.662;2023-02-01T13:14:46;19.80;;;4.70;;
21168;SDS011;10742;51.816;8.662;2023-02-01T13:17:55;13.57;;;4.37;;
21168;SDS011;10742;51.816;8.662;2023-02-01T13:21:03;11.87;;;4.70;;
21168;SDS011;10742;51.816;8.662;2023-02-01T13:24:26;14.90;;;4.03;;
21168;SDS011;10742;51.816;8.662;2023-02-01T13:27:34;13.63;;;3.90;;
21168;SDS011;10742;51.816;8.662;2023-02-01T13:37:45;19.57;;;4.80;;
21168;SDS011;10742;51.816;8.662;2023-02-01T13:44:13;15.47;;;3.73;;
21168;SDS011;10742;51.816;8.662;2023-02-01T13:47:31;13.20;;;3.47;;
21168;SDS011;10742;51.816;8.662;2023-02-01T13:50:37;17.30;;;3.30;;
21168;SDS011;10742;51.816;8.662;2023-02-01T13:53:46;14.13;;;3.37;;
21168;SDS011;10742;51.816;8.662;2023-02-01T13:56:50;13.07;;;3.13;;
21168;SDS011;10742;51.816;8.662;2023-02-01T13:59:52;13.33;;;3.10;;
21168;SDS011;10742;51.816;8.662;2023-02-01T14:03:01;16.73;;;3.27;;
21168;SDS011;10742;51.816;8.662;2023-02-01T14:06:14;16.03;;;3.33;;
21168;SDS011;10742;51.816;8.662;2023-02-01T14:09:33;14.50;;;3.40;;
21168;SDS011;10742;51.816;8.662;2023-02-01T14:12:46;13.67;;;3.27;;
21168;SDS011;10742;51.816;8.662;2023-02-01T14:16:10;16.83;;;3.70;;
21168;SDS011;10742;51.816;8.662;2023-02-01T14:19:21;19.40;;;3.13;;
21168;SDS011;10742;51.816;8.662;2023-02-01T14:22:31;27.13;;;3.70;;
21168;SDS011;10742;51.816;8.662;2023-02-01T14:25:35;17.40;;;3.53;;
21168;SDS011;10742;51.816;8.662;2023-02-01T14:29:26;16.57;;;3.10;;
21168;SDS011;10742;51.816;8.662;2023-02-01T14:35:20;17.30;;;3.20;;
21168;SDS011;10742;51.816;8.662;2023-02-01T14:38:27;15.13;;;2.80;;
21168;SDS011;10742;51.816;8.662;2023-02-01T14:41:33;14.67;;;3.07;;
21168;SDS011;10742;51.816;8.662;2023-02-01T14:44:36;15.63;;;3.20;;
21168;SDS011;10742;51.816;8.662;2023-02-01T14:47:39;17.03;;;3.30;;
21168;SDS011;10742;51.816;8.662;2023-02-01T14:50:42;18.40;;;3.03;;
21168;SDS011;10742;51.816;8.662;2023-02-01T14:53:49;22.37;;;4.33;;
21168;SDS011;10742;51.816;8.662;2023-02-01T14:56:52;17.70;;;3.40;;
21168;SDS011;10742;51.816;8.662;2023-02-01T15:00:00;31.00;;;3.60;;
21168;SDS011;10742;51.816;8.662;2023-02-01T15:06:54;12.30;;;2.97;;
21168;SDS011;10742;51.816;8.662;2023-02-01T15:10:05;25.43;;;4.03;;
21168;SDS011;10742;51.816;8.662;2023-02-01T15:13:12;8.50;;;2.10;;
21168;SDS011;10742;51.816;8.662;2023-02-01T15:16:24;4.70;;;1.47;;
21168;SDS011;10742;51.816;8.662;2023-02-01T15:19:28;9.73;;;1.50;;
21168;SDS011;10742;51.816;8.662;2023-02-01T15:22:32;7.13;;;1.60;;
21168;SDS011;10742;51.816;8.662;2023-02-01T15:25:35;9.70;;;2.87;;
21168;SDS011;10742;51.816;8.662;2023-02-01T15:28:40;7.03;;;2.30;;
21168;SDS011;10742;51.816;8.662;2023-02-01T15:31:44;7.10;;;2.03;;
21168;SDS011;10742;51.816;8.662;2023-02-01T15:34:51;6.07;;;2.03;;
21168;SDS011;10742;51.816;8.662;2023-02-01T15:37:53;9.47;;;1.93;;
21168;SDS011;10742;51.816;8.662;2023-02-01T15:41:21;8.13;;;2.67;;
21168;SDS011;10742;51.816;8.662;2023-02-01T15:44:33;23.10;;;6.53;;
21168;SDS011;10742;51.816;8.662;2023-02-01T15:47:39;10.93;;;2.60;;
21168;SDS011;10742;51.816;8.662;2023-02-01T15:50:44;25.97;;;6.10;;
21168;SDS011;10742;51.816;8.662;2023-02-01T15:53:47;31.43;;;9.97;;
21168;SDS011;10742;51.816;8.662;2023-02-01T15:56:59;13.30;;;3.60;;
21168;SDS011;10742;51.816;8.662;2023-02-01T16:03:35;17.03;;;4.53;;
21168;SDS011;10742;51.816;8.662;2023-02-01T16:06:44;30.33;;;7.10;;
21168;SDS011;10742;51.816;8.662;2023-02-01T16:09:56;27.87;;;5.80;;
21168;SDS011;10742;51.816;8.662;2023-02-01T16:13:00;18.80;;;4.23;;
21168;SDS011;10742;51.816;8.662;2023-02-01T16:16:03;18.47;;;4.17;;
21168;SDS011;10742;51.816;8.662;2023-02-01T16:19:09;142.33;;;37.07;;
21168;SDS011;10742;51.816;8.662;2023-02-01T16:22:12;50.23;;;14.63;;
21168;SDS011;10742;51.816;8.662;2023-02-01T16:25:14;162.80;;;40.57;;
21168;SDS011;10742;51.816;8.662;2023-02-01T16:28:17;192.10;;;50.50;;
21168;SDS011;10742;51.816;8.662;2023-02-01T16:31:21;141.73;;;38.43;;
21168;SDS011;10742;51.816;8.662;2023-02-01T16:34:27;71.80;;;22.77;;
21168;SDS011;10742;51.816;8.662;2023-02-01T16:37:30;141.17;;;42.07;;
21168;SDS011;10742;51.816;8.662;2023-02-01T16:40:34;140.87;;;41.70;;
21168;SDS011;10742;51.816;8.662;2023-02-01T16:43:36;343.17;;;95.33;;
21168;SDS011;10742;51.816;8.662;2023-02-01T16:46:40;116.40;;;36.57;;
21168;SDS011;10742;51.816;8.662;2023-02-01T16:49:45;37.50;;;11.97;;
21168;SDS011;10742;51.816;8.662;2023-02-01T16:52:48;87.23;;;26.90;;
21168;SDS011;10742;51.816;8.662;2023-02-01T16:55:51;67.00;;;20.33;;
21168;SDS011;10742;51.816;8.662;2023-02-01T16:58:54;68.80;;;23.03;;
21168;SDS011;10742;51.816;8.662;2023-02-01T17:01:56;37.30;;;12.10;;
21168;SDS011;10742;51.816;8.662;2023-02-01T17:04:58;65.47;;;24.97;;
21168;SDS011;10742;51.816;8.662;2023-02-01T17:08:02;23.17;;;5.70;;
21168;SDS011;10742;51.816;8.662;2023-02-01T17:11:07;35.23;;;13.20;;
21168;SDS011;10742;51.816;8.662;2023-02-01T17:14:16;17.03;;;4.57;;
21168;SDS011;10742;51.816;8.662;2023-02-01T17:17:21;16.50;;;5.50;;
21168;SDS011;10742;51.816;8.662;2023-02-01T17:20:38;17.37;;;4.17;;
21168;SDS011;10742;51.816;8.662;2023-02-01T17:23:41;11.97;;;2.73;;
21168;SDS011;10742;51.816;8.662;2023-02-01T17:26:43;14.73;;;4.33;;
21168;SDS011;10742;51.816;8.662;2023-02-01T17:29:47;16.57;;;3.57;;
21168;SDS011;10742;51.816;8.662;2023-02-01T17:32:50;17.37;;;3.00;;
21168;SDS011;10742;51.816;8.662;2023-02-01T17:35:53;17.77;;;2.50;;
21168;SDS011;10742;51.816;8.662;2023-02-01T17:38:57;11.77;;;2.53;;
21168;SDS011;10742;51.816;8.662;2023-02-01T17:42:08;11.00;;;2.43;;
21168;SDS011;10742;51.816;8.662;2023-02-01T17:45:18;11.23;;;2.87;;
21168;SDS011;10742;51.816;8.662;2023-02-01T17:48:33;11.63;;;2.40;;
21168;SDS011;10742;51.816;8.662;2023-02-01T17:51:36;12.17;;;2.70;;
21168;SDS011;10742;51.816;8.662;2023-02-01T17:54:57;9.73;;;3.10;;
21168;SDS011;10742;51.816;8.662;2023-02-01T17:58:19;8.80;;;2.70;;
21168;SDS011;10742;51.816;8.662;2023-02-01T18:01:41;8.43;;;2.87;;
21168;SDS011;10742;51.816;8.662;2023-02-01T18:04:43;9.30;;;2.33;;
21168;SDS011;10742;51.816;8.662;2023-02-01T18:07:46;9.43;;;2.60;;
21168;SDS011;10742;51.816;8.662;2023-02-01T18:10:48;15.13;;;3.07;;
21168;SDS011;10742;51.816;8.662;2023-02-01T18:13:56;8.47;;;2.80;;
21168;SDS011;10742;51.816;8.662;2023-02-01T18:16:58;13.37;;;2.80;;
21168;SDS011;10742;51.816;8.662;2023-02-01T18:20:01;14.63;;;3.23;;
21168;SDS011;10742;51.816;8.662;2023-02-01T18:23:03;12.53;;;3.33;;
21168;SDS011;10742;51.816;8.662;2023-02-01T18:26:08;11.10;;;2.83;;
21168;SDS011;10742;51.816;8.662;2023-02-01T18:29:13;10.97;;;2.83;;
21168;SDS011;10742;51.816;8.662;2023-02-01T18:32:15;10.57;;;2.87;;
21168;SDS011;10742;51.816;8.662;2023-02-01T18:38:26;14.00;;;4.20;;
21168;SDS011;10742;51.816;8.662;2023-02-01T18:41:29;15.10;;;4.03;;
21168;SDS011;10742;51.816;8.662;2023-02-01T18:44:31;16.93;;;4.13;;
21168;SDS011;10742;51.816;8.662;2023-02-01T18:47:34;15.20;;;4.97;;
21168;SDS011;10742;51.816;8.662;2023-02-01T18:50:41;15.43;;;4.40;;
21168;SDS011;10742;51.816;8.662;2023-02-01T18:53:46;8.83;;;3.00;;
21168;SDS011;10742;51.816;8.662;2023-02-01T18:56:48;15.87;;;3.37;;
21168;SDS011;10742;51.816;8.662;2023-02-01T18:59:51;12.73;;;3.70;;
21168;SDS011;10742;51.816;8.662;2023-02-01T19:02:53;20.57;;;4.93;;
21168;SDS011;10742;51.816;8.662;2023-02-01T19:05:56;15.33;;;4.27;;
21168;SDS011;10742;51.816;8.662;2023-02-01T19:08:59;13.70;;;4.00;;
21168;SDS011;10742;51.816;8.662;2023-02-01T19:12:02;13.67;;;3.70;;
21168;SDS011;10742;51.816;8.662;2023-02-01T19:15:06;15.00;;;3.37;;
21168;SDS011;10742;51.816;8.662;2023-02-01T19:18:13;13.97;;;3.23;;
21168;SDS011;10742;51.816;8.662;2023-02-01T19:21:20;13.37;;;2.87;;
21168;SDS011;10742;51.816;8.662;2023-02-01T19:24:23;14.17;;;3.27;;
21168;SDS011;10742;51.816;8.662;2023-02-01T19:27:28;11.77;;;2.90;;
21168;SDS011;10742;51.816;8.662;2023-02-01T19:30:30;14.30;;;3.33;;
21168;SDS011;10742;51.816;8.662;2023-02-01T19:33:33;14.40;;;3.50;;
21168;SDS011;10742;51.816;8.662;2023-02-01T19:36:36;10.97;;;2.90;;
21168;SDS011;10742;51.816;8.662;2023-02-01T19:39:43;12.53;;;3.33;;
21168;SDS011;10742;51.816;8.662;2023-02-01T19:42:46;16.50;;;3.00;;
21168;SDS011;10742;51.816;8.662;2023-02-01T19:45:48;11.83;;;3.00;;
21168;SDS011;10742;51.816;8.662;2023-02-01T19:48:51;12.83;;;3.03;;
21168;SDS011;10742;51.816;8.662;2023-02-01T19:51:53;15.33;;;3.30;;
21168;SDS011;10742;51.816;8.662;2023-02-01T19:54:56;15.03;;;2.93;;
21168;SDS011;10742;51.816;8.662;2023-02-01T19:57:58;9.70;;;2.60;;
21168;SDS011;10742;51.816;8.662;2023-02-01T20:01:03;9.43;;;3.17;;
21168;SDS011;10742;51.816;8.662;2023-02-01T20:04:08;14.93;;;3.60;;
21168;SDS011;10742;51.816;8.662;2023-02-01T20:07:10;14.47;;;4.13;;